sensor_id;sensor_type;location;lat;lon;timestamp;pressure;altitude;pressure_sealevel;temperature;humidity
70370;BME280;57790;51.356;-2.906;2023-07-28T00:00:51;100678.81;;;20.55;100.00
70370;BME280;57790;51.356;-2.906;2023-07-28T00:03:52;100681.59;;;20.48;100.00
70370;BME280;57790;51.356;-2.906;2023-07-28T00:06:52;100678.91;;;20.48;100.00
70370;BME280;57790;51.356;-2.906;2023-07-28T00:09:53;100686.97;;;20.48;100.00
70370;BME280;57790;51.356;-2.906;2023-07-28T00:12:53;100692.34;;;20.48;100.00
70370;BME280;57790;51.356;-2.906;2023-07-28T00:15:53;100689.78;;;20.42;100.00
70370;BME280;57790;51.356;-2.906;2023-07-28T00:18:54;100685.84;;;20.38;100.00
70370;BME280;57790;51.356;-2.906;2023-07-28T00:21:54;100685.03;;;20.37;100.00
70370;BME280;57790;51.356;-2.906;2023-07-28T00:24:56;100687.34;;;20.34;100.00
70370;BME280;57790;51.356;-2.906;2023-07-28T00:27:56;100692.59;;;20.29;100.00
70370;BME280;57790;51.356;-2.906;2023-07-28T00:30:57;100686.41;;;20.28;100.00
70370;BME280;57790;51.356;-2.906;2023-07-28T00:33:57;100688.50;;;20.26;100.00
70370;BME280;57790;51.356;-2.906;2023-07-28T00:36:57;100690.16;;;20.27;100.00
70370;BME280;57790;51.356;-2.906;2023-07-28T00:39:58;100687.28;;;20.22;100.00
70370;BME280;57790;51.356;-2.906;2023-07-28T00:42:58;100686.47;;;20.21;100.00
70370;BME280;57790;51.356;-2.906;2023-07-28T00:45:58;100682.50;;;20.24;100.00
70370;BME280;57790;51.356;-2.906;2023-07-28T00:48:59;100686.84;;;20.25;100.00
70370;BME280;57790;51.356;-2.906;2023-07-28T00:52:02;100683.78;;;20.21;100.00
70370;BME280;57790;51.356;-2.906;2023-07-28T00:55:02;100678.63;;;20.20;100.00
70370;BME280;57790;51.356;-2.906;2023-07-28T00:58:03;100674.75;;;20.16;100.00
70370;BME280;57790;51.356;-2.906;2023-07-28T01:01:03;100669.84;;;20.13;100.00
70370;BME280;57790;51.356;-2.906;2023-07-28T01:04:04;100667.56;;;20.10;100.00
70370;BME280;57790;51.356;-2.906;2023-07-28T01:07:10;100664.28;;;20.08;100.00
70370;BME280;57790;51.356;-2.906;2023-07-28T01:10:18;100663.69;;;20.06;100.00
70370;BME280;57790;51.356;-2.906;2023-07-28T01:13:21;100661.00;;;20.06;100.00
70370;BME280;57790;51.356;-2.906;2023-07-28T01:16:21;100653.16;;;20.04;100.00
70370;BME280;57790;51.356;-2.906;2023-07-28T01:19:22;100657.13;;;20.02;100.00
70370;BME280;57790;51.356;-2.906;2023-07-28T01:25:43;100659.22;;;20.00;100.00
70370;BME280;57790;51.356;-2.906;2023-07-28T01:28:47;100653.25;;;19.98;100.00
70370;BME280;57790;51.356;-2.906;2023-07-28T01:31:48;100654.50;;;19.95;100.00
70370;BME280;57790;51.356;-2.906;2023-07-28T01:34:48;100659.88;;;19.95;100.00
70370;BME280;57790;51.356;-2.906;2023-07-28T01:37:49;100660.72;;;19.96;100.00
70370;BME280;57790;51.356;-2.906;2023-07-28T01:40:51;100664.91;;;19.91;100.00
70370;BME280;57790;51.356;-2.906;2023-07-28T01:43:51;100666.91;;;19.96;100.00
70370;BME280;57790;51.356;-2.906;2023-07-28T01:46:55;100666.09;;;19.96;100.00
70370;BME280;57790;51.356;-2.906;2023-07-28T01:49:55;100671.88;;;19.99;100.00
70370;BME280;57790;51.356;-2.906;2023-07-28T01:52:56;100668.19;;;19.94;100.00
70370;BME280;57790;51.356;-2.906;2023-07-28T01:55:56;100678.22;;;19.86;100.00
70370;BME280;57790;51.356;-2.906;2023-07-28T01:58:57;100663.72;;;19.87;100.00
70370;BME280;57790;51.356;-2.906;2023-07-28T02:01:57;100668.06;;;19.88;100.00
70370;BME280;57790;51.356;-2.906;2023-07-28T02:04:58;100668.28;;;19.87;100.00
70370;BME280;57790;51.356;-2.906;2023-07-28T02:07:59;100677.19;;;19.87;100.00
70370;BME280;57790;51.356;-2.906;2023-07-28T02:10:59;100681.38;;;19.83;100.00
70370;BME280;57790;51.356;-2.906;2023-07-28T02:13:59;100672.25;;;19.84;100.00
70370;BME280;57790;51.356;-2.906;2023-07-28T02:17:00;100679.50;;;19.84;100.00
70370;BME280;57790;51.356;-2.906;2023-07-28T02:20:01;100674.94;;;19.84;100.00
70370;BME280;57790;51.356;-2.906;2023-07-28T02:23:03;100664.59;;;19.81;100.00
70370;BME280;57790;51.356;-2.906;2023-07-28T02:26:03;100665.06;;;19.78;100.00
70370;BME280;57790;51.356;-2.906;2023-07-28T02:29:04;100660.13;;;19.75;100.00
70370;BME280;57790;51.356;-2.906;2023-07-28T02:32:04;100668.66;;;19.72;100.00
70370;BME280;57790;51.356;-2.906;2023-07-28T02:35:05;100666.19;;;19.71;100.00
70370;BME280;57790;51.356;-2.906;2023-07-28T02:38:06;100663.88;;;19.74;100.00
70370;BME280;57790;51.356;-2.906;2023-07-28T02:41:06;100673.22;;;19.72;100.00
70370;BME280;57790;51.356;-2.906;2023-07-28T02:44:07;100672.19;;;19.73;100.00
70370;BME280;57790;51.356;-2.906;2023-07-28T02:47:07;100673.81;;;19.74;100.00
70370;BME280;57790;51.356;-2.906;2023-07-28T02:50:08;100671.81;;;19.69;100.00
70370;BME280;57790;51.356;-2.906;2023-07-28T02:53:09;100673.50;;;19.64;100.00
70370;BME280;57790;51.356;-2.906;2023-07-28T02:56:09;100673.72;;;19.62;100.00
70370;BME280;57790;51.356;-2.906;2023-07-28T02:59:09;100664.38;;;19.65;100.00
70370;BME280;57790;51.356;-2.906;2023-07-28T03:02:10;100666.25;;;19.64;100.00
70370;BME280;57790;51.356;-2.906;2023-07-28T03:05:10;100666.25;;;19.64;100.00
70370;BME280;57790;51.356;-2.906;2023-07-28T03:08:10;100667.91;;;19.65;100.00
70370;BME280;57790;51.356;-2.906;2023-07-28T03:11:11;100663.56;;;19.64;100.00
70370;BME280;57790;51.356;-2.906;2023-07-28T03:14:11;100670.91;;;19.57;100.00
70370;BME280;57790;51.356;-2.906;2023-07-28T03:17:13;100674.63;;;19.56;100.00
70370;BME280;57790;51.356;-2.906;2023-07-28T03:20:13;100682.47;;;19.57;100.00
70370;BME280;57790;51.356;-2.906;2023-07-28T03:23:14;100678.16;;;19.56;100.00
70370;BME280;57790;51.356;-2.906;2023-07-28T03:26:14;100683.13;;;19.53;100.00
70370;BME280;57790;51.356;-2.906;2023-07-28T03:29:14;100686.63;;;19.53;100.00
70370;BME280;57790;51.356;-2.906;2023-07-28T03:32:15;100687.66;;;19.52;100.00
70370;BME280;57790;51.356;-2.906;2023-07-28T03:35:15;100691.03;;;19.48;100.00
70370;BME280;57790;51.356;-2.906;2023-07-28T03:38:16;100691.84;;;19.48;100.00
70370;BME280;57790;51.356;-2.906;2023-07-28T03:41:16;100688.69;;;19.51;100.00
70370;BME280;57790;51.356;-2.906;2023-07-28T03:44:17;100675.72;;;19.48;100.00
70370;BME280;57790;51.356;-2.906;2023-07-28T03:47:19;100688.78;;;19.45;100.00
70370;BME280;57790;51.356;-2.906;2023-07-28T03:50:20;100681.75;;;19.44;100.00
70370;BME280;57790;51.356;-2.906;2023-07-28T03:53:20;100677.06;;;19.39;100.00
70370;BME280;57790;51.356;-2.906;2023-07-28T03:56:20;100689.88;;;19.37;100.00
70370;BME280;57790;51.356;-2.906;2023-07-28T03:59:21;100688.81;;;19.38;100.00
70370;BME280;57790;51.356;-2.906;2023-07-28T04:02:21;100694.84;;;19.40;100.00
70370;BME280;57790;51.356;-2.906;2023-07-28T04:05:22;100689.06;;;19.37;100.00
70370;BME280;57790;51.356;-2.906;2023-07-28T04:08:22;100693.47;;;19.31;100.00
70370;BME280;57790;51.356;-2.906;2023-07-28T04:11:22;100694.50;;;19.30;100.00
70370;BME280;57790;51.356;-2.906;2023-07-28T04:14:23;100697.56;;;19.33;100.00
70370;BME280;57790;51.356;-2.906;2023-07-28T04:17:23;100701.97;;;19.28;100.00
70370;BME280;57790;51.356;-2.906;2023-07-28T04:20:24;100698.47;;;19.27;100.00
70370;BME280;57790;51.356;-2.906;2023-07-28T04:23:24;100690.22;;;19.22;100.00
70370;BME280;57790;51.356;-2.906;2023-07-28T04:26:25;100690.22;;;19.22;100.00
70370;BME280;57790;51.356;-2.906;2023-07-28T04:29:25;100686.50;;;19.23;100.00
70370;BME280;57790;51.356;-2.906;2023-07-28T04:32:27;100694.34;;;19.25;100.00
70370;BME280;57790;51.356;-2.906;2023-07-28T04:35:30;100687.75;;;19.21;100.00
70370;BME280;57790;51.356;-2.906;2023-07-28T04:38:30;100691.50;;;19.20;100.00
70370;BME280;57790;51.356;-2.906;2023-07-28T04:41:30;100701.63;;;19.18;100.00
70370;BME280;57790;51.356;-2.906;2023-07-28T04:44:31;100698.56;;;19.14;100.00
70370;BME280;57790;51.356;-2.906;2023-07-28T04:47:31;100686.19;;;19.13;100.00
70370;BME280;57790;51.356;-2.906;2023-07-28T04:50:32;100688.88;;;19.13;100.00
70370;BME280;57790;51.356;-2.906;2023-07-28T04:53:33;100688.28;;;19.11;100.00
70370;BME280;57790;51.356;-2.906;2023-07-28T04:56:34;100684.75;;;19.11;100.00
70370;BME280;57790;51.356;-2.906;2023-07-28T04:59:34;100689.72;;;19.07;100.00
70370;BME280;57790;51.356;-2.906;2023-07-28T05:02:34;100685.19;;;19.08;100.00
70370;BME280;57790;51.356;-2.906;2023-07-28T05:05:35;100687.25;;;19.06;100.00
70370;BME280;57790;51.356;-2.906;2023-07-28T05:08:35;100679.22;;;19.06;100.00
70370;BME280;57790;51.356;-2.906;2023-07-28T05:11:36;100685.41;;;19.06;100.00
70370;BME280;57790;51.356;-2.906;2023-07-28T05:14:37;100680.25;;;19.05;100.00
70370;BME280;57790;51.356;-2.906;2023-07-28T05:17:37;100685.63;;;19.05;100.00
70370;BME280;57790;51.356;-2.906;2023-07-28T05:20:38;100694.28;;;19.07;100.00
70370;BME280;57790;51.356;-2.906;2023-07-28T05:23:38;100684.81;;;19.04;100.00
70370;BME280;57790;51.356;-2.906;2023-07-28T05:26:38;100687.25;;;19.06;100.00
70370;BME280;57790;51.356;-2.906;2023-07-28T05:29:39;100689.72;;;19.07;100.00
70370;BME280;57790;51.356;-2.906;2023-07-28T05:32:39;100694.28;;;19.07;100.00
70370;BME280;57790;51.356;-2.906;2023-07-28T05:35:40;100684.34;;;19.07;100.00
70370;BME280;57790;51.356;-2.906;2023-07-28T05:38:40;100688.91;;;19.07;100.00
70370;BME280;57790;51.356;-2.906;2023-07-28T05:41:40;100686.00;;;19.08;100.00
70370;BME280;57790;51.356;-2.906;2023-07-28T05:44:41;100686.44;;;19.05;100.00
70370;BME280;57790;51.356;-2.906;2023-07-28T05:47:41;100687.50;;;19.04;100.00
70370;BME280;57790;51.356;-2.906;2023-07-28T05:50:42;100681.06;;;19.05;100.00
70370;BME280;57790;51.356;-2.906;2023-07-28T05:53:42;100682.50;;;19.08;100.00
70370;BME280;57790;51.356;-2.906;2023-07-28T05:56:43;100688.09;;;19.06;100.00
70370;BME280;57790;51.356;-2.906;2023-07-28T05:59:43;100684.81;;;19.04;100.00
70370;BME280;57790;51.356;-2.906;2023-07-28T06:02:43;100684.13;;;19.09;100.00
70370;BME280;57790;51.356;-2.906;2023-07-28T06:05:44;100692.19;;;19.09;100.00
70370;BME280;57790;51.356;-2.906;2023-07-28T06:08:44;100697.38;;;19.10;100.00
70370;BME280;57790;51.356;-2.906;2023-07-28T06:11:45;100694.88;;;19.09;100.00
70370;BME280;57790;51.356;-2.906;2023-07-28T06:14:45;100692.81;;;19.11;100.00
70370;BME280;57790;51.356;-2.906;2023-07-28T06:17:45;100694.88;;;19.09;100.00
70370;BME280;57790;51.356;-2.906;2023-07-28T06:20:46;100689.94;;;19.06;100.00
70370;BME280;57790;51.356;-2.906;2023-07-28T06:23:46;100690.78;;;19.06;100.00
70370;BME280;57790;51.356;-2.906;2023-07-28T06:26:47;100693.91;;;19.03;100.00
70370;BME280;57790;51.356;-2.906;2023-07-28T06:29:47;100694.50;;;19.05;100.00
70370;BME280;57790;51.356;-2.906;2023-07-28T06:32:47;100695.56;;;19.04;100.00
70370;BME280;57790;51.356;-2.906;2023-07-28T06:35:48;100700.47;;;19.07;100.00
70370;BME280;57790;51.356;-2.906;2023-07-28T06:38:48;100697.97;;;19.12;100.00
70370;BME280;57790;51.356;-2.906;2023-07-28T06:41:50;100699.63;;;19.13;100.00
70370;BME280;57790;51.356;-2.906;2023-07-28T06:44:51;100696.72;;;19.15;100.00
70370;BME280;57790;51.356;-2.906;2023-07-28T06:47:51;100695.88;;;19.14;100.00
70370;BME280;57790;51.356;-2.906;2023-07-28T06:50:52;100708.66;;;19.19;100.00
70370;BME280;57790;51.356;-2.906;2023-07-28T06:53:52;100699.94;;;19.23;100.00
70370;BME280;57790;51.356;-2.906;2023-07-28T06:56:52;100704.28;;;19.24;100.00
70370;BME280;57790;51.356;-2.906;2023-07-28T06:59:54;100702.78;;;19.28;100.00
70370;BME280;57790;51.356;-2.906;2023-07-28T07:02:54;100711.22;;;19.32;100.00
70370;BME280;57790;51.356;-2.906;2023-07-28T07:05:55;100705.84;;;19.32;100.00
70370;BME280;57790;51.356;-2.906;2023-07-28T07:08:55;100709.38;;;19.32;100.00
70370;BME280;57790;51.356;-2.906;2023-07-28T07:11:56;100703.75;;;19.34;100.00
70370;BME280;57790;51.356;-2.906;2023-07-28T07:14:56;100711.00;;;19.33;100.00
70370;BME280;57790;51.356;-2.906;2023-07-28T07:17:56;100715.34;;;19.35;100.00
70370;BME280;57790;51.356;-2.906;2023-07-28T07:21:01;100721.09;;;19.38;100.00
70370;BME280;57790;51.356;-2.906;2023-07-28T07:24:03;100720.91;;;19.40;100.00
70370;BME280;57790;51.356;-2.906;2023-07-28T07:27:04;100720.91;;;19.40;100.00
70370;BME280;57790;51.356;-2.906;2023-07-28T07:30:05;100723.38;;;19.41;100.00
70370;BME280;57790;51.356;-2.906;2023-07-28T07:33:06;100716.50;;;19.45;100.00
70370;BME280;57790;51.356;-2.906;2023-07-28T07:36:17;100723.88;;;19.50;100.00
70370;BME280;57790;51.356;-2.906;2023-07-28T07:39:17;100725.53;;;19.51;100.00
70370;BME280;57790;51.356;-2.906;2023-07-28T07:42:18;100723.47;;;19.53;100.00
70370;BME280;57790;51.356;-2.906;2023-07-28T07:45:19;100717.03;;;19.54;100.00
70370;BME280;57790;51.356;-2.906;2023-07-28T07:48:19;100719.91;;;19.59;100.00
70370;BME280;57790;51.356;-2.906;2023-07-28T07:51:19;100717.81;;;19.61;100.00
70370;BME280;57790;51.356;-2.906;2023-07-28T07:54:20;100710.34;;;19.63;100.00
70370;BME280;57790;51.356;-2.906;2023-07-28T07:57:21;100719.59;;;19.67;100.00
70370;BME280;57790;51.356;-2.906;2023-07-28T08:00:21;100729.94;;;19.70;100.00
70370;BME280;57790;51.356;-2.906;2023-07-28T08:03:21;100728.06;;;19.71;100.00
70370;BME280;57790;51.356;-2.906;2023-07-28T08:06:22;100721.41;;;19.73;100.00
70370;BME280;57790;51.356;-2.906;2023-07-28T08:09:23;100726.94;;;19.78;100.00
70370;BME280;57790;51.356;-2.906;2023-07-28T08:12:23;100729.41;;;19.80;100.00
70370;BME280;57790;51.356;-2.906;2023-07-28T08:15:25;100728.75;;;19.84;100.00
70370;BME280;57790;51.356;-2.906;2023-07-28T08:18:25;100732.03;;;19.86;100.00
70370;BME280;57790;51.356;-2.906;2023-07-28T08:21:26;100741.31;;;19.90;100.00
70370;BME280;57790;51.356;-2.906;2023-07-28T08:24:26;100739.81;;;19.95;100.00
70370;BME280;57790;51.356;-2.906;2023-07-28T08:27:26;100740.03;;;19.93;100.00
70370;BME280;57790;51.356;-2.906;2023-07-28T08:30:27;100741.91;;;19.92;100.00
70370;BME280;57790;51.356;-2.906;2023-07-28T08:33:27;100744.59;;;19.92;100.00
70370;BME280;57790;51.356;-2.906;2023-07-28T08:36:28;100745.34;;;20.00;100.00
70370;BME280;57790;51.356;-2.906;2023-07-28T08:39:28;100744.66;;;20.04;100.00
70370;BME280;57790;51.356;-2.906;2023-07-28T08:42:30;100750.41;;;20.08;100.00
70370;BME280;57790;51.356;-2.906;2023-07-28T08:45:30;100749.59;;;20.07;100.00
70370;BME280;57790;51.356;-2.906;2023-07-28T08:48:31;100747.97;;;20.06;100.00
70370;BME280;57790;51.356;-2.906;2023-07-28T08:51:31;100749.38;;;20.09;100.00
70370;BME280;57790;51.356;-2.906;2023-07-28T08:54:32;100756.78;;;20.13;100.00
70370;BME280;57790;51.356;-2.906;2023-07-28T08:57:32;100755.75;;;20.14;100.00
70370;BME280;57790;51.356;-2.906;2023-07-28T09:00:33;100755.53;;;20.16;100.00
70370;BME280;57790;51.356;-2.906;2023-07-28T09:03:33;100762.78;;;20.15;100.00
70370;BME280;57790;51.356;-2.906;2023-07-28T09:06:37;100758.94;;;20.23;100.00
70370;BME280;57790;51.356;-2.906;2023-07-28T09:09:38;100756.47;;;20.21;100.00
70370;BME280;57790;51.356;-2.906;2023-07-28T09:12:48;100762.69;;;20.22;100.00
70370;BME280;57790;51.356;-2.906;2023-07-28T09:15:49;100765.38;;;20.22;100.00
70370;BME280;57790;51.356;-2.906;2023-07-28T09:18:50;100762.22;;;20.25;100.00
70370;BME280;57790;51.356;-2.906;2023-07-28T09:22:00;100768.47;;;20.26;100.00
70370;BME280;57790;51.356;-2.906;2023-07-28T09:25:11;100757.47;;;20.27;100.00
70370;BME280;57790;51.356;-2.906;2023-07-28T09:28:12;100759.69;;;20.30;100.00
70370;BME280;57790;51.356;-2.906;2023-07-28T09:31:14;100765.09;;;20.30;100.00
70370;BME280;57790;51.356;-2.906;2023-07-28T09:34:26;100767.31;;;20.33;100.00
70370;BME280;57790;51.356;-2.906;2023-07-28T09:37:27;100762.53;;;20.35;100.00
70370;BME280;57790;51.356;-2.906;2023-07-28T09:40:27;100760.44;;;20.37;100.00
70370;BME280;57790;51.356;-2.906;2023-07-28T09:43:28;100772.84;;;20.38;100.00
70370;BME280;57790;51.356;-2.906;2023-07-28T09:46:29;100774.47;;;20.39;100.00
70370;BME280;57790;51.356;-2.906;2023-07-28T09:49:35;100775.72;;;20.43;100.00
70370;BME280;57790;51.356;-2.906;2023-07-28T09:52:41;100771.16;;;20.44;100.00
70370;BME280;57790;51.356;-2.906;2023-07-28T09:55:42;100768.47;;;20.44;100.00
70370;BME280;57790;51.356;-2.906;2023-07-28T09:58:50;100775.28;;;20.46;100.00
70370;BME280;57790;51.356;-2.906;2023-07-28T10:01:51;100774.00;;;20.49;100.00
70370;BME280;57790;51.356;-2.906;2023-07-28T10:04:53;100765.22;;;20.54;100.00
70370;BME280;57790;51.356;-2.906;2023-07-28T10:07:54;100771.22;;;20.56;100.00
70370;BME280;57790;51.356;-2.906;2023-07-28T10:10:55;100759.75;;;20.60;100.00
70370;BME280;57790;51.356;-2.906;2023-07-28T10:13:56;100759.53;;;20.62;100.00
70370;BME280;57790;51.356;-2.906;2023-07-28T10:16:57;100754.97;;;20.62;100.00
70370;BME280;57790;51.356;-2.906;2023-07-28T10:19:58;100757.19;;;20.65;100.00
70370;BME280;57790;51.356;-2.906;2023-07-28T10:23:12;100750.50;;;20.68;100.00
70370;BME280;57790;51.356;-2.906;2023-07-28T10:26:13;100736.72;;;20.76;100.00
70370;BME280;57790;51.356;-2.906;2023-07-28T10:29:36;100736.28;;;20.79;100.00
70370;BME280;57790;51.356;-2.906;2023-07-28T10:32:40;100734.78;;;20.83;100.00
70370;BME280;57790;51.356;-2.906;2023-07-28T10:35:47;100729.75;;;20.87;100.00
70370;BME280;57790;51.356;-2.906;2023-07-28T10:42:07;100728.00;;;20.92;100.00
70370;BME280;57790;51.356;-2.906;2023-07-28T10:45:08;100729.41;;;20.95;100.00
70370;BME280;57790;51.356;-2.906;2023-07-28T10:48:09;100721.81;;;21.03;100.00
70370;BME280;57790;51.356;-2.906;2023-07-28T10:51:11;100718.06;;;21.04;100.00
70370;BME280;57790;51.356;-2.906;2023-07-28T10:54:12;100707.16;;;20.99;100.00
70370;BME280;57790;51.356;-2.906;2023-07-28T10:57:16;100711.09;;;20.97;100.00
70370;BME280;57790;51.356;-2.906;2023-07-28T11:00:21;100716.50;;;20.97;100.00
70370;BME280;57790;51.356;-2.906;2023-07-28T11:03:22;100716.88;;;21.00;100.00
70370;BME280;57790;51.356;-2.906;2023-07-28T11:06:23;100708.44;;;21.08;100.00
70370;BME280;57790;51.356;-2.906;2023-07-28T11:09:24;100722.38;;;21.05;100.00
70370;BME280;57790;51.356;-2.906;2023-07-28T11:12:24;100725.66;;;21.07;100.00
70370;BME280;57790;51.356;-2.906;2023-07-28T11:15:25;100724.63;;;21.08;100.00
70370;BME280;57790;51.356;-2.906;2023-07-28T11:18:26;100730.38;;;21.12;100.00
70370;BME280;57790;51.356;-2.906;2023-07-28T11:21:26;100715.03;;;21.13;100.00
70370;BME280;57790;51.356;-2.906;2023-07-28T11:24:27;100710.06;;;21.09;100.00
70370;BME280;57790;51.356;-2.906;2023-07-28T11:27:27;100720.88;;;21.09;100.00
70370;BME280;57790;51.356;-2.906;2023-07-28T11:30:28;100712.78;;;21.09;100.00
70370;BME280;57790;51.356;-2.906;2023-07-28T11:33:29;100709.84;;;21.11;100.00
70370;BME280;57790;51.356;-2.906;2023-07-28T11:36:30;100713.34;;;21.12;100.00
70370;BME280;57790;51.356;-2.906;2023-07-28T11:39:31;100702.00;;;21.09;100.00
70370;BME280;57790;51.356;-2.906;2023-07-28T11:42:40;100704.69;;;21.09;100.00
70370;BME280;57790;51.356;-2.906;2023-07-28T11:45:40;100713.50;;;21.17;100.00
70370;BME280;57790;51.356;-2.906;2023-07-28T11:48:41;100720.19;;;21.14;100.00
70370;BME280;57790;51.356;-2.906;2023-07-28T11:51:43;100708.81;;;21.12;100.00
70370;BME280;57790;51.356;-2.906;2023-07-28T11:54:45;100712.09;;;21.14;100.00
70370;BME280;57790;51.356;-2.906;2023-07-28T11:57:46;100708.13;;;21.17;100.00
70370;BME280;57790;51.356;-2.906;2023-07-28T12:00:46;100710.09;;;21.21;100.00
70370;BME280;57790;51.356;-2.906;2023-07-28T12:03:47;100705.75;;;21.20;100.00
70370;BME280;57790;51.356;-2.906;2023-07-28T12:07:13;100712.56;;;21.23;100.00
70370;BME280;57790;51.356;-2.906;2023-07-28T12:10:14;100712.94;;;21.26;100.00
70370;BME280;57790;51.356;-2.906;2023-07-28T12:13:15;100706.09;;;21.24;100.00
70370;BME280;57790;51.356;-2.906;2023-07-28T12:16:38;100705.69;;;21.27;100.00
70370;BME280;57790;51.356;-2.906;2023-07-28T12:20:04;100709.81;;;21.29;100.00
70370;BME280;57790;51.356;-2.906;2023-07-28T12:23:11;100707.09;;;21.29;100.00
70370;BME280;57790;51.356;-2.906;2023-07-28T12:26:11;100714.38;;;21.29;100.00
70370;BME280;57790;51.356;-2.906;2023-07-28T12:29:11;100719.53;;;21.30;100.00
70370;BME280;57790;51.356;-2.906;2023-07-28T12:32:12;100704.75;;;21.33;100.00
70370;BME280;57790;51.356;-2.906;2023-07-28T12:35:13;100701.56;;;21.36;100.00
70370;BME280;57790;51.356;-2.906;2023-07-28T12:38:13;100701.09;;;21.39;100.00
70370;BME280;57790;51.356;-2.906;2023-07-28T12:41:14;100704.75;;;21.45;100.00
70370;BME280;57790;51.356;-2.906;2023-07-28T12:44:14;100699.94;;;21.47;100.00
70370;BME280;57790;51.356;-2.906;2023-07-28T12:47:14;100708.03;;;21.47;100.00
70370;BME280;57790;51.356;-2.906;2023-07-28T12:50:15;100700.03;;;21.52;100.00
70370;BME280;57790;51.356;-2.906;2023-07-28T12:53:22;100690.22;;;21.57;100.00
70370;BME280;57790;51.356;-2.906;2023-07-28T12:56:22;100693.00;;;21.62;100.00
70370;BME280;57790;51.356;-2.906;2023-07-28T12:59:23;100687.72;;;21.67;100.00
70370;BME280;57790;51.356;-2.906;2023-07-28T13:02:23;100690.88;;;21.76;100.00
70370;BME280;57790;51.356;-2.906;2023-07-28T13:05:24;100677.59;;;21.86;100.00
70370;BME280;57790;51.356;-2.906;2023-07-28T13:08:24;100684.50;;;21.94;100.00
70370;BME280;57790;51.356;-2.906;2023-07-28T13:11:24;100685.66;;;21.98;100.00
70370;BME280;57790;51.356;-2.906;2023-07-28T13:14:25;100684.13;;;22.02;100.00
70370;BME280;57790;51.356;-2.906;2023-07-28T13:17:25;100692.94;;;22.09;100.00
70370;BME280;57790;51.356;-2.906;2023-07-28T13:20:26;100683.78;;;22.10;100.00
70370;BME280;57790;51.356;-2.906;2023-07-28T13:23:26;100688.22;;;22.16;100.00
70370;BME280;57790;51.356;-2.906;2023-07-28T13:26:27;100692.31;;;22.19;100.00
70370;BME280;57790;51.356;-2.906;2023-07-28T13:29:27;100694.53;;;22.22;100.00
70370;BME280;57790;51.356;-2.906;2023-07-28T13:32:27;100704.03;;;22.24;100.00
70370;BME280;57790;51.356;-2.906;2023-07-28T13:35:28;100720.25;;;22.24;100.00
70370;BME280;57790;51.356;-2.906;2023-07-28T13:38:28;100720.81;;;22.26;100.00
70370;BME280;57790;51.356;-2.906;2023-07-28T13:41:28;100719.56;;;22.29;100.00
70370;BME280;57790;51.356;-2.906;2023-07-28T13:44:29;100706.63;;;22.31;100.00
70370;BME280;57790;51.356;-2.906;2023-07-28T13:47:29;100719.63;;;22.34;100.00
70370;BME280;57790;51.356;-2.906;2023-07-28T13:50:30;100717.50;;;22.36;100.00
70370;BME280;57790;51.356;-2.906;2023-07-28T13:53:30;100714.00;;;22.36;100.00
70370;BME280;57790;51.356;-2.906;2023-07-28T13:56:31;100717.59;;;22.41;100.00
70370;BME280;57790;51.356;-2.906;2023-07-28T13:59:31;100719.59;;;22.46;100.00
70370;BME280;57790;51.356;-2.906;2023-07-28T14:02:32;100720.50;;;22.51;100.00
70370;BME280;57790;51.356;-2.906;2023-07-28T14:05:32;100712.25;;;22.58;100.00
70370;BME280;57790;51.356;-2.906;2023-07-28T14:08:33;100711.28;;;22.64;100.00
70370;BME280;57790;51.356;-2.906;2023-07-28T14:11:33;100713.00;;;22.70;100.00
70370;BME280;57790;51.356;-2.906;2023-07-28T14:14:34;100704.44;;;22.73;100.00
70370;BME280;57790;51.356;-2.906;2023-07-28T14:17:34;100707.53;;;22.82;100.00
70370;BME280;57790;51.356;-2.906;2023-07-28T14:20:35;100700.38;;;22.88;100.00
70370;BME280;57790;51.356;-2.906;2023-07-28T14:23:35;100698.06;;;22.96;100.00
70370;BME280;57790;51.356;-2.906;2023-07-28T14:26:36;100692.53;;;23.03;100.00
70370;BME280;57790;51.356;-2.906;2023-07-28T14:29:36;100687.75;;;23.10;100.00
70370;BME280;57790;51.356;-2.906;2023-07-28T14:32:36;100685.16;;;23.15;100.00
70370;BME280;57790;51.356;-2.906;2023-07-28T14:35:38;100682.81;;;23.24;100.00
70370;BME280;57790;51.356;-2.906;2023-07-28T14:38:38;100677.81;;;23.32;100.00
70370;BME280;57790;51.356;-2.906;2023-07-28T14:41:39;100677.06;;;23.37;100.00
70370;BME280;57790;51.356;-2.906;2023-07-28T14:44:39;100674.44;;;23.42;100.00
70370;BME280;57790;51.356;-2.906;2023-07-28T14:47:40;100677.47;;;23.45;100.00
70370;BME280;57790;51.356;-2.906;2023-07-28T14:50:40;100662.94;;;23.52;100.00
70370;BME280;57790;51.356;-2.906;2023-07-28T14:53:40;100663.84;;;23.57;100.00
70370;BME280;57790;51.356;-2.906;2023-07-28T14:56:41;100653.09;;;23.62;100.00
70370;BME280;57790;51.356;-2.906;2023-07-28T14:59:41;100651.78;;;23.65;100.00
70370;BME280;57790;51.356;-2.906;2023-07-28T15:02:42;100662.41;;;23.71;100.00
70370;BME280;57790;51.356;-2.906;2023-07-28T15:05:42;100668.97;;;23.76;100.00
70370;BME280;57790;51.356;-2.906;2023-07-28T15:08:43;100671.19;;;23.79;100.00
70370;BME280;57790;51.356;-2.906;2023-07-28T15:11:43;100656.81;;;23.78;100.00
70370;BME280;57790;51.356;-2.906;2023-07-28T15:14:44;100659.53;;;23.78;100.00
70370;BME280;57790;51.356;-2.906;2023-07-28T15:17:44;100650.06;;;23.81;100.00
70370;BME280;57790;51.356;-2.906;2023-07-28T15:20:45;100649.25;;;23.80;100.00
70370;BME280;57790;51.356;-2.906;2023-07-28T15:23:45;100657.38;;;23.80;100.00
70370;BME280;57790;51.356;-2.906;2023-07-28T15:26:52;100649.25;;;23.80;100.00
70370;BME280;57790;51.356;-2.906;2023-07-28T15:29:53;100655.75;;;23.79;100.00